Weston, Florida
Current Conditions -  °F | °C
As of 7:17 AM on Monday 24 Nov 2014 (Local Time) from KHWO Reporting Station
Broken Clouds Broken Clouds  
Wind Chill: 76°   Ceiling: 2300
Heat Index: 76°   Visibility: 7mi
Dew Point: 74°   Wind: 0mph
Humidity: 94%   Direction: NA
Pressure: 30"   Gusts: NA
Location:  26.11°N, 80.41°W
Report Text: KHWO 241217Z 00000KT 7SM BKN023 24/23 A3000 RMK AO2 T02440233
Loading
Personal Weather Stations






























Interactive Weather Map New forecast layout! Learn more

10-Day Weather Forecast

Advertisements
Track Severe Weather on mobile